Time;durP1;ratioP1;P1;durP2;ratioP2;P2;SDS_P1;SDS_P2;PMS_P1;PMS_P2;Temp;Humidity;BMP_temperature;BMP_pressure;BME280_temperature;BME280_humidity;BME280_pressure;Samples;Min_cycle;Max_cycle;Signal;HPM_P1;HPM_P2
2023/01/21 00:00:10;;;;;;;16.75;8.05;;;;;;;;;;5042041;28;22011;-71
2023/01/21 00:02:55;;;;;;;13.45;7.57;;;;;;;;;;5045350;28;20056;-71
2023/01/21 00:05:40;;;;;;;11.10;6.10;;;;;;;;;;5047122;28;20789;-75
2023/01/21 00:08:26;;;;;;;12.73;7.55;;;;;;;;;;5058773;28;20032;-75
2023/01/21 00:11:13;;;;;;;13.10;7.40;;;;;;;;;;5048312;28;20031;-78
2023/01/21 00:13:58;;;;;;;13.13;6.97;;;;;;;;;;5046363;28;20036;-75
2023/01/21 00:16:43;;;;;;;15.23;7.50;;;;;;;;;;5041607;28;20043;-75
2023/01/21 00:19:29;;;;;;;13.57;6.63;;;;;;;;;;5058122;28;20592;-77
2023/01/21 00:22:14;;;;;;;12.48;6.93;;;;;;;;;;5056810;28;20470;-72
2023/01/21 00:24:59;;;;;;;13.13;6.88;;;;;;;;;;5050474;28;20274;-83
2023/01/21 00:27:44;;;;;;;13.40;6.97;;;;;;;;;;5037904;28;20029;-77
2023/01/21 00:30:29;;;;;;;13.18;7.40;;;;;;;;;;5058226;28;20060;-77
2023/01/21 00:33:15;;;;;;;12.75;7.00;;;;;;;;;;5060283;28;20479;-78
2023/01/21 00:36:01;;;;;;;13.75;6.75;;;;;;;;;;5042725;28;20044;-76
2023/01/21 00:38:47;;;;;;;12.23;7.55;;;;;;;;;;5061572;28;20078;-77
2023/01/21 00:41:32;;;;;;;13.13;7.18;;;;;;;;;;5048736;28;20167;-70
2023/01/21 00:44:18;;;;;;;16.05;7.75;;;;;;;;;;5045999;28;20025;-75
2023/01/21 00:47:04;;;;;;;14.07;6.82;;;;;;;;;;5059349;28;20047;-75
2023/01/21 00:49:49;;;;;;;17.42;8.40;;;;;;;;;;5055505;28;20123;-78
2023/01/21 00:52:34;;;;;;;12.30;6.93;;;;;;;;;;5059292;28;20039;-76
2023/01/21 00:55:20;;;;;;;15.98;7.70;;;;;;;;;;5046859;28;20093;-76
2023/01/21 00:58:05;;;;;;;13.82;6.90;;;;;;;;;;5050799;28;20265;-77
2023/01/21 01:00:58;;;;;;;14.57;7.55;;;;;;;;;;5042517;28;20101;-78
2023/01/21 01:03:44;;;;;;;13.88;7.20;;;;;;;;;;5058674;28;20071;-73
2023/01/21 01:06:29;;;;;;;13.55;7.43;;;;;;;;;;5041846;28;20017;-71
2023/01/21 01:09:15;;;;;;;18.85;7.82;;;;;;;;;;5047454;28;20550;-71
2023/01/21 01:12:00;;;;;;;12.82;7.28;;;;;;;;;;5044791;28;20475;-73
2023/01/21 01:14:45;;;;;;;15.40;8.75;;;;;;;;;;5056648;28;20029;-70
2023/01/21 01:17:31;;;;;;;13.85;7.75;;;;;;;;;;5031682;28;20104;-72
2023/01/21 01:20:16;;;;;;;13.27;7.03;;;;;;;;;;5044072;28;20035;-69
2023/01/21 01:23:01;;;;;;;17.15;7.63;;;;;;;;;;5059611;28;20029;-83
2023/01/21 01:25:53;;;;;;;12.65;7.53;;;;;;;;;;5055810;28;20040;-84
2023/01/21 01:28:39;;;;;;;12.50;7.70;;;;;;;;;;5058789;28;20376;-85
2023/01/21 01:31:24;;;;;;;15.82;8.07;;;;;;;;;;5059380;28;20033;-84
2023/01/21 01:34:09;;;;;;;16.27;7.97;;;;;;;;;;5044094;28;20025;-84
2023/01/21 01:36:54;;;;;;;16.45;8.05;;;;;;;;;;5044739;28;20032;-83
2023/01/21 01:39:40;;;;;;;16.08;7.43;;;;;;;;;;5026691;28;20052;-82
2023/01/21 01:42:25;;;;;;;14.95;7.45;;;;;;;;;;5055733;28;20309;-82
2023/01/21 01:45:16;;;;;;;16.27;8.32;;;;;;;;;;5054418;28;20614;-83
2023/01/21 01:48:05;;;;;;;15.10;7.85;;;;;;;;;;5042785;28;20032;-84
2023/01/21 01:50:50;;;;;;;13.50;6.82;;;;;;;;;;5057068;28;20037;-82
2023/01/21 01:53:39;;;;;;;14.88;6.88;;;;;;;;;;5042646;28;20037;-84
2023/01/21 01:56:25;;;;;;;13.23;8.68;;;;;;;;;;5036296;28;20037;-84
2023/01/21 01:59:10;;;;;;;14.00;7.03;;;;;;;;;;5043622;28;20086;-77
2023/01/21 02:01:57;;;;;;;13.55;7.60;;;;;;;;;;5067749;28;21329;-77
2023/01/21 02:04:51;;;;;;;12.35;7.55;;;;;;;;;;5060755;28;20257;-77
2023/01/21 02:07:39;;;;;;;15.55;8.50;;;;;;;;;;5028933;28;20025;-76
2023/01/21 02:10:24;;;;;;;16.15;8.27;;;;;;;;;;5058198;28;20032;-76
2023/01/21 02:13:10;;;;;;;14.00;7.60;;;;;;;;;;5059515;28;20061;-74
2023/01/21 02:16:07;;;;;;;18.58;9.23;;;;;;;;;;5029828;28;20060;-71
2023/01/21 02:19:04;;;;;;;14.95;8.00;;;;;;;;;;5058820;28;20041;-71
2023/01/21 02:21:49;;;;;;;13.70;8.27;;;;;;;;;;5036749;28;20028;-71
2023/01/21 02:24:35;;;;;;;17.30;7.88;;;;;;;;;;5039990;28;20082;-72
2023/01/21 02:27:26;;;;;;;13.60;7.45;;;;;;;;;;5030573;28;20036;-73
2023/01/21 02:30:24;;;;;;;12.88;7.93;;;;;;;;;;5034759;28;20050;-72
2023/01/21 02:33:31;;;;;;;18.33;8.85;;;;;;;;;;5044090;28;20090;-75
2023/01/21 02:36:24;;;;;;;16.80;8.88;;;;;;;;;;5044666;28;20476;-82
2023/01/21 02:39:27;;;;;;;16.25;8.73;;;;;;;;;;5044147;28;20044;-84
2023/01/21 02:42:31;;;;;;;14.88;7.97;;;;;;;;;;5039191;28;20365;-82
2023/01/21 02:45:20;;;;;;;13.05;7.82;;;;;;;;;;5021959;28;20129;-81
2023/01/21 02:48:24;;;;;;;16.45;7.40;;;;;;;;;;5047812;28;20066;-84
2023/01/21 02:51:11;;;;;;;17.95;8.52;;;;;;;;;;5040370;28;20059;-73
2023/01/21 02:53:56;;;;;;;15.60;8.52;;;;;;;;;;5055175;28;20212;-73
2023/01/21 02:56:42;;;;;;;16.88;7.95;;;;;;;;;;5038447;28;20116;-74
2023/01/21 02:59:31;;;;;;;19.75;9.23;;;;;;;;;;5041227;28;20044;-75
2023/01/21 03:02:34;;;;;;;14.45;7.22;;;;;;;;;;5043950;28;20016;-73
2023/01/21 03:05:27;;;;;;;16.60;8.18;;;;;;;;;;5060792;28;20036;-74
2023/01/21 03:08:18;;;;;;;13.93;8.27;;;;;;;;;;5055215;28;20487;-72
2023/01/21 03:11:06;;;;;;;17.15;9.45;;;;;;;;;;5041089;28;20123;-71
2023/01/21 03:17:29;;;;;;;17.88;8.73;;;;;;;;;;5037032;28;20033;-78
2023/01/21 03:20:20;;;;;;;14.20;7.22;;;;;;;;;;5058107;28;20029;-78
2023/01/21 03:23:08;;;;;;;17.05;8.05;;;;;;;;;;5040539;28;20026;-79
2023/01/21 03:25:54;;;;;;;13.73;7.35;;;;;;;;;;5054634;28;20388;-77
2023/01/21 03:28:45;;;;;;;13.20;7.30;;;;;;;;;;5054312;28;20040;-74
2023/01/21 03:31:32;;;;;;;17.33;7.45;;;;;;;;;;5043231;28;20315;-77
2023/01/21 03:34:18;;;;;;;13.30;7.53;;;;;;;;;;5051348;28;20027;-75
2023/01/21 03:37:12;;;;;;;13.73;7.63;;;;;;;;;;5034472;28;20021;-75
2023/01/21 03:40:06;;;;;;;16.33;8.85;;;;;;;;;;5039903;28;20115;-77
2023/01/21 03:42:55;;;;;;;16.83;8.25;;;;;;;;;;5041969;28;20033;-76
2023/01/21 03:45:43;;;;;;;15.73;8.13;;;;;;;;;;5041038;28;20033;-82
2023/01/21 03:48:38;;;;;;;12.73;6.95;;;;;;;;;;5039655;28;20025;-72
2023/01/21 03:51:28;;;;;;;16.30;7.38;;;;;;;;;;5052236;28;20044;-71
2023/01/21 03:54:13;;;;;;;17.52;7.88;;;;;;;;;;5043650;28;20032;-73
2023/01/21 03:56:59;;;;;;;15.55;8.65;;;;;;;;;;5055840;28;20029;-72
2023/01/21 03:59:44;;;;;;;18.88;8.30;;;;;;;;;;5041974;28;20037;-71
2023/01/21 04:02:29;;;;;;;13.50;7.32;;;;;;;;;;5043140;28;20052;-74
2023/01/21 04:05:14;;;;;;;11.82;6.57;;;;;;;;;;5055758;28;20036;-76
2023/01/21 04:08:00;;;;;;;14.05;7.78;;;;;;;;;;5038860;28;20364;-73
2023/01/21 04:10:45;;;;;;;18.33;8.40;;;;;;;;;;5064264;28;20040;-70
2023/01/21 04:13:30;;;;;;;12.18;7.28;;;;;;;;;;5053452;28;20036;-72
2023/01/21 04:16:15;;;;;;;15.35;7.80;;;;;;;;;;5041549;28;20017;-71
2023/01/21 04:19:00;;;;;;;16.42;8.20;;;;;;;;;;5043213;28;20036;-70
2023/01/21 04:21:46;;;;;;;14.43;8.02;;;;;;;;;;5051187;28;20040;-71
2023/01/21 04:24:31;;;;;;;14.70;8.07;;;;;;;;;;5027338;28;20044;-78
2023/01/21 04:27:16;;;;;;;17.77;8.65;;;;;;;;;;5055363;28;20029;-77
2023/01/21 04:30:02;;;;;;;17.65;8.23;;;;;;;;;;5044872;28;20044;-77
2023/01/21 04:32:47;;;;;;;17.58;7.82;;;;;;;;;;5055719;28;20037;-76
2023/01/21 04:35:35;;;;;;;14.15;7.68;;;;;;;;;;5043028;28;20025;-75
2023/01/21 04:38:20;;;;;;;13.65;6.88;;;;;;;;;;5043100;28;20129;-76
2023/01/21 04:41:06;;;;;;;14.50;7.03;;;;;;;;;;5061948;28;20024;-71
2023/01/21 04:43:51;;;;;;;12.23;7.45;;;;;;;;;;5044036;28;20047;-71
2023/01/21 04:46:36;;;;;;;14.10;7.60;;;;;;;;;;5043777;28;20080;-70
2023/01/21 04:49:22;;;;;;;15.68;7.95;;;;;;;;;;5058562;28;20075;-71
2023/01/21 04:52:08;;;;;;;12.23;6.97;;;;;;;;;;5042592;28;20061;-73
2023/01/21 04:54:53;;;;;;;18.33;7.35;;;;;;;;;;5058716;28;20036;-71
2023/01/21 04:57:38;;;;;;;15.93;8.52;;;;;;;;;;5060795;28;20040;-72
2023/01/21 05:00:23;;;;;;;13.40;7.03;;;;;;;;;;5047490;28;20032;-72
2023/01/21 05:03:09;;;;;;;11.88;6.88;;;;;;;;;;5045804;28;20025;-78
2023/01/21 05:05:54;;;;;;;17.67;8.60;;;;;;;;;;5056051;28;20549;-77
2023/01/21 05:08:39;;;;;;;16.70;7.93;;;;;;;;;;5058762;28;20155;-79
2023/01/21 05:11:24;;;;;;;16.65;8.63;;;;;;;;;;5038395;28;20103;-79
2023/01/21 05:14:09;;;;;;;13.07;8.02;;;;;;;;;;5050988;28;20021;-79
2023/01/21 05:16:55;;;;;;;15.07;6.68;;;;;;;;;;5038444;28;20399;-72
2023/01/21 05:19:40;;;;;;;18.77;8.05;;;;;;;;;;5034776;28;20025;-78
2023/01/21 05:22:25;;;;;;;14.32;7.50;;;;;;;;;;5059221;28;20040;-71
2023/01/21 05:25:12;;;;;;;16.20;8.23;;;;;;;;;;5027868;28;20028;-72
2023/01/21 05:27:57;;;;;;;13.10;6.93;;;;;;;;;;5032017;28;20029;-71
2023/01/21 05:30:42;;;;;;;13.27;6.63;;;;;;;;;;5042964;28;20045;-72
2023/01/21 05:33:29;;;;;;;12.73;6.60;;;;;;;;;;5059863;28;20387;-71
2023/01/21 05:36:14;;;;;;;13.13;6.72;;;;;;;;;;5039802;28;20017;-72
2023/01/21 05:39:00;;;;;;;12.60;6.75;;;;;;;;;;5062016;28;20108;-75
2023/01/21 05:41:45;;;;;;;11.73;6.70;;;;;;;;;;5040551;28;20102;-77
2023/01/21 05:44:30;;;;;;;12.45;6.57;;;;;;;;;;5043011;28;20339;-76
2023/01/21 05:47:15;;;;;;;14.68;6.97;;;;;;;;;;5051898;28;20430;-77
2023/01/21 05:50:00;;;;;;;12.48;6.75;;;;;;;;;;5046977;28;20090;-76
2023/01/21 05:52:49;;;;;;;14.02;6.18;;;;;;;;;;5037416;28;20490;-77
2023/01/21 05:55:35;;;;;;;11.48;6.28;;;;;;;;;;5048030;28;20029;-71
2023/01/21 05:58:21;;;;;;;12.18;5.43;;;;;;;;;;5045016;22;20137;-67
2023/01/21 06:01:07;;;;;;;10.40;5.80;;;;;;;;;;5024808;28;20033;-68
2023/01/21 06:03:52;;;;;;;10.15;6.32;;;;;;;;;;5019191;28;20036;-68
2023/01/21 06:06:39;;;;;;;11.88;5.97;;;;;;;;;;5025932;28;20026;-68
2023/01/21 06:09:24;;;;;;;11.00;6.18;;;;;;;;;;5025826;28;20029;-70
2023/01/21 06:12:09;;;;;;;14.52;5.82;;;;;;;;;;5024132;28;20033;-78
2023/01/21 06:14:55;;;;;;;12.32;7.13;;;;;;;;;;5021793;28;20550;-74
2023/01/21 06:17:40;;;;;;;10.80;6.78;;;;;;;;;;5029688;28;20028;-69
2023/01/21 06:20:25;;;;;;;13.30;6.53;;;;;;;;;;5024538;28;20033;-72
2023/01/21 06:23:12;;;;;;;12.27;6.40;;;;;;;;;;5026227;28;20135;-68
2023/01/21 06:26:00;;;;;;;14.65;6.70;;;;;;;;;;5024666;28;20033;-69
2023/01/21 06:28:45;;;;;;;14.35;7.47;;;;;;;;;;5027609;28;20566;-70
2023/01/21 06:31:31;;;;;;;12.90;7.35;;;;;;;;;;5025408;28;20060;-78
2023/01/21 06:34:16;;;;;;;16.83;9.73;;;;;;;;;;5022534;28;20032;-78
2023/01/21 06:37:01;;;;;;;19.45;10.38;;;;;;;;;;5024551;28;20029;-80
2023/01/21 06:39:46;;;;;;;20.02;11.18;;;;;;;;;;5025287;28;20041;-80
2023/01/21 06:42:31;;;;;;;19.90;11.18;;;;;;;;;;5011467;28;20056;-80
2023/01/21 06:45:17;;;;;;;26.65;12.30;;;;;;;;;;5008516;28;20044;-79
2023/01/21 06:48:02;;;;;;;22.15;13.35;;;;;;;;;;5018596;28;20492;-78
2023/01/21 06:50:47;;;;;;;20.85;12.77;;;;;;;;;;5031766;28;20045;-75
2023/01/21 06:53:32;;;;;;;23.85;13.65;;;;;;;;;;5020292;28;20021;-68
2023/01/21 06:56:18;;;;;;;23.98;13.73;;;;;;;;;;5024974;28;20029;-69
2023/01/21 06:59:03;;;;;;;27.50;14.65;;;;;;;;;;5025648;28;20075;-71
2023/01/21 07:01:48;;;;;;;25.05;13.70;;;;;;;;;;5017038;28;22009;-70
2023/01/21 07:04:33;;;;;;;26.02;14.50;;;;;;;;;;5021785;28;20037;-72
2023/01/21 07:07:18;;;;;;;25.13;14.10;;;;;;;;;;5022642;28;20040;-69
2023/01/21 07:10:04;;;;;;;25.13;15.07;;;;;;;;;;5024214;28;20030;-73
2023/01/21 07:12:49;;;;;;;27.05;14.95;;;;;;;;;;5023426;28;20071;-79
2023/01/21 07:15:35;;;;;;;24.58;14.13;;;;;;;;;;5021879;28;20113;-79
2023/01/21 07:18:20;;;;;;;23.80;13.68;;;;;;;;;;5022126;28;20044;-78
2023/01/21 07:21:05;;;;;;;31.02;15.68;;;;;;;;;;5029216;28;20021;-81
2023/01/21 07:23:51;;;;;;;24.75;14.65;;;;;;;;;;5024302;28;20152;-79
2023/01/21 07:26:37;;;;;;;30.75;16.25;;;;;;;;;;5021367;28;20457;-69
2023/01/21 07:29:23;;;;;;;23.95;14.75;;;;;;;;;;5019141;28;20136;-76
2023/01/21 07:32:08;;;;;;;30.42;16.52;;;;;;;;;;5024346;28;20062;-75
2023/01/21 07:34:53;;;;;;;24.02;14.52;;;;;;;;;;5026455;28;20041;-75
2023/01/21 07:37:39;;;;;;;30.40;16.00;;;;;;;;;;5025384;28;20017;-75
2023/01/21 07:40:24;;;;;;;26.17;15.05;;;;;;;;;;5021182;28;20030;-76
2023/01/21 07:43:09;;;;;;;27.77;16.35;;;;;;;;;;5022269;28;20088;-75
2023/01/21 07:45:55;;;;;;;29.85;16.05;;;;;;;;;;5023129;28;20124;-70
2023/01/21 07:48:40;;;;;;;28.92;16.08;;;;;;;;;;5023875;28;20030;-70
2023/01/21 07:51:25;;;;;;;27.00;15.20;;;;;;;;;;5023672;28;20117;-72
2023/01/21 07:54:11;;;;;;;26.77;15.05;;;;;;;;;;5032876;28;20045;-71
2023/01/21 07:56:56;;;;;;;30.13;15.70;;;;;;;;;;5036664;28;20345;-69
2023/01/21 07:59:41;;;;;;;27.02;14.18;;;;;;;;;;5022035;28;20123;-71
2023/01/21 08:02:27;;;;;;;25.95;15.52;;;;;;;;;;5023329;28;20038;-70
2023/01/21 08:05:12;;;;;;;31.33;17.45;;;;;;;;;;5036541;28;20103;-70
2023/01/21 08:07:57;;;;;;;33.53;16.50;;;;;;;;;;5020439;28;20033;-70
2023/01/21 08:10:43;;;;;;;26.60;15.48;;;;;;;;;;5021272;28;20037;-67
2023/01/21 08:13:28;;;;;;;30.23;16.25;;;;;;;;;;5024746;28;20042;-70
2023/01/21 08:16:13;;;;;;;29.58;15.88;;;;;;;;;;5025583;28;20068;-69
2023/01/21 08:18:59;;;;;;;29.33;15.52;;;;;;;;;;5024571;28;20049;-70
2023/01/21 08:21:44;;;;;;;24.67;13.93;;;;;;;;;;5025758;28;20049;-78
2023/01/21 08:24:29;;;;;;;29.77;16.90;;;;;;;;;;5029549;28;20024;-78
2023/01/21 08:27:14;;;;;;;30.15;16.77;;;;;;;;;;5035137;28;20029;-78
2023/01/21 08:29:59;;;;;;;28.30;15.88;;;;;;;;;;5028258;28;20026;-78
2023/01/21 08:32:45;;;;;;;29.15;16.73;;;;;;;;;;5033146;28;20029;-77
2023/01/21 08:35:30;;;;;;;28.42;16.88;;;;;;;;;;5025169;28;20520;-79
2023/01/21 08:38:15;;;;;;;26.13;14.55;;;;;;;;;;5026935;28;20057;-79
2023/01/21 08:41:00;;;;;;;29.13;15.57;;;;;;;;;;5029196;28;20041;-80
2023/01/21 08:43:46;;;;;;;28.80;14.60;;;;;;;;;;5028553;28;20468;-77
2023/01/21 08:46:31;;;;;;;32.38;18.05;;;;;;;;;;5027570;28;20069;-77
2023/01/21 08:49:16;;;;;;;33.95;16.92;;;;;;;;;;5026634;28;20432;-77
2023/01/21 08:52:01;;;;;;;31.90;17.83;;;;;;;;;;5017876;28;20037;-76
2023/01/21 08:54:47;;;;;;;29.90;17.13;;;;;;;;;;5027412;28;20029;-78
2023/01/21 08:57:32;;;;;;;29.13;15.82;;;;;;;;;;5032696;28;20382;-80
2023/01/21 09:00:18;;;;;;;25.40;13.13;;;;;;;;;;5025900;28;20060;-74
2023/01/21 09:03:03;;;;;;;26.13;13.55;;;;;;;;;;5023388;28;20481;-71
2023/01/21 09:05:51;;;;;;;24.75;14.55;;;;;;;;;;5018799;28;20116;-72
2023/01/21 09:08:37;;;;;;;29.50;16.38;;;;;;;;;;5015626;28;20164;-72
2023/01/21 09:11:22;;;;;;;31.30;17.13;;;;;;;;;;5024663;28;20472;-73
2023/01/21 09:14:08;;;;;;;30.15;15.20;;;;;;;;;;5022183;28;20037;-74
2023/01/21 09:16:54;;;;;;;31.65;15.13;;;;;;;;;;5026980;28;20032;-70
2023/01/21 09:19:39;;;;;;;29.42;16.48;;;;;;;;;;5026224;28;20036;-70
2023/01/21 09:22:25;;;;;;;29.77;15.95;;;;;;;;;;5021818;28;20057;-70
2023/01/21 09:25:11;;;;;;;29.23;15.13;;;;;;;;;;5038746;28;20025;-72
2023/01/21 09:27:56;;;;;;;28.50;13.98;;;;;;;;;;5023779;28;20060;-71
2023/01/21 09:30:41;;;;;;;27.02;15.02;;;;;;;;;;5031120;28;20028;-71
2023/01/21 09:33:27;;;;;;;28.73;14.80;;;;;;;;;;5025476;28;20041;-71
2023/01/21 09:36:14;;;;;;;30.38;16.23;;;;;;;;;;5022376;28;20106;-69
2023/01/21 09:38:59;;;;;;;30.15;15.00;;;;;;;;;;5025873;28;20048;-72
2023/01/21 09:41:48;;;;;;;29.02;15.68;;;;;;;;;;5021808;28;20048;-72
2023/01/21 09:44:43;;;;;;;28.83;14.53;;;;;;;;;;5013480;28;20120;-71
2023/01/21 09:47:36;;;;;;;32.60;16.75;;;;;;;;;;5018936;28;20562;-71
2023/01/21 09:50:22;;;;;;;29.15;17.13;;;;;;;;;;5027680;28;20087;-70
2023/01/21 09:53:18;;;;;;;26.08;15.65;;;;;;;;;;5027088;28;20105;-76
2023/01/21 09:56:05;;;;;;;22.88;12.35;;;;;;;;;;5022740;28;20444;-80
2023/01/21 09:58:56;;;;;;;21.25;12.48;;;;;;;;;;5023595;28;20054;-80
2023/01/21 10:01:41;;;;;;;22.08;11.75;;;;;;;;;;5030910;28;20374;-78
2023/01/21 10:04:42;;;;;;;22.02;10.85;;;;;;;;;;5028372;28;20033;-80
2023/01/21 10:07:41;;;;;;;23.42;11.45;;;;;;;;;;5027717;28;20052;-79
2023/01/21 10:10:26;;;;;;;22.88;10.90;;;;;;;;;;5028037;28;20530;-80
2023/01/21 10:13:24;;;;;;;21.67;11.45;;;;;;;;;;5024829;28;20045;-70
2023/01/21 10:16:28;;;;;;;23.73;13.15;;;;;;;;;;5024991;28;20033;-70
2023/01/21 10:19:16;;;;;;;24.08;12.02;;;;;;;;;;5026814;28;20030;-70
2023/01/21 10:22:04;;;;;;;24.67;12.30;;;;;;;;;;5010648;28;20065;-70
2023/01/21 10:25:05;;;;;;;22.50;12.82;;;;;;;;;;5021562;28;20052;-69
2023/01/21 10:27:51;;;;;;;22.27;11.85;;;;;;;;;;5021147;28;20029;-69
2023/01/21 10:30:38;;;;;;;22.35;12.90;;;;;;;;;;5025436;28;20029;-74
2023/01/21 10:33:25;;;;;;;24.88;12.38;;;;;;;;;;5031398;28;20036;-70
2023/01/21 10:36:29;;;;;;;31.52;14.02;;;;;;;;;;5027777;28;20033;-70
2023/01/21 10:39:14;;;;;;;24.60;12.90;;;;;;;;;;5025122;28;20393;-71
2023/01/21 10:42:07;;;;;;;26.77;12.70;;;;;;;;;;5025120;28;20477;-69
2023/01/21 10:44:56;;;;;;;24.10;12.23;;;;;;;;;;5027172;28;20045;-70
2023/01/21 10:47:42;;;;;;;26.17;12.32;;;;;;;;;;5010531;28;20040;-70
2023/01/21 10:50:36;;;;;;;21.55;12.27;;;;;;;;;;5025780;28;20021;-71
2023/01/21 10:53:28;;;;;;;23.60;12.00;;;;;;;;;;5026372;28;20036;-70
2023/01/21 10:56:16;;;;;;;24.80;13.50;;;;;;;;;;5026041;28;20033;-72
2023/01/21 10:59:04;;;;;;;25.20;13.68;;;;;;;;;;5025632;28;20394;-70
2023/01/21 11:02:21;;;;;;;27.02;13.52;;;;;;;;;;5026363;28;20447;-69
2023/01/21 11:05:11;;;;;;;22.27;12.20;;;;;;;;;;5017112;28;20336;-69
2023/01/21 11:07:56;;;;;;;23.20;12.35;;;;;;;;;;5025770;28;20057;-70
2023/01/21 11:10:42;;;;;;;24.60;12.75;;;;;;;;;;5025889;28;20413;-78
2023/01/21 11:13:28;;;;;;;24.60;13.23;;;;;;;;;;5025980;28;20028;-77
2023/01/21 11:16:29;;;;;;;22.88;12.63;;;;;;;;;;5009436;28;20021;-78
2023/01/21 11:19:21;;;;;;;23.10;12.82;;;;;;;;;;5016264;28;20107;-80
2023/01/21 11:22:12;;;;;;;21.13;12.55;;;;;;;;;;5025137;28;20102;-77
2023/01/21 11:24:58;;;;;;;22.50;13.60;;;;;;;;;;5024402;28;20037;-68
2023/01/21 11:27:43;;;;;;;22.58;13.02;;;;;;;;;;5022441;28;20507;-69
2023/01/21 11:30:36;;;;;;;29.20;13.40;;;;;;;;;;5024821;28;20362;-76
2023/01/21 11:33:26;;;;;;;26.92;13.48;;;;;;;;;;5023092;28;20041;-78
2023/01/21 11:36:13;;;;;;;25.80;14.73;;;;;;;;;;5010578;28;20080;-78
2023/01/21 11:39:02;;;;;;;23.23;12.98;;;;;;;;;;5026484;28;20049;-77
2023/01/21 11:41:56;;;;;;;29.60;13.02;;;;;;;;;;5025413;28;20162;-79
2023/01/21 11:45:01;;;;;;;22.73;13.10;;;;;;;;;;5023440;28;20137;-70
2023/01/21 11:47:47;;;;;;;21.23;12.07;;;;;;;;;;5025545;28;20120;-69
2023/01/21 11:50:33;;;;;;;21.45;12.88;;;;;;;;;;5024097;28;20137;-71
2023/01/21 11:53:18;;;;;;;20.08;10.90;;;;;;;;;;5025969;28;20064;-69
2023/01/21 11:56:05;;;;;;;22.38;11.43;;;;;;;;;;5027294;28;20120;-69
2023/01/21 11:58:50;;;;;;;21.73;11.73;;;;;;;;;;5025560;28;20052;-68
2023/01/21 12:01:35;;;;;;;21.02;11.57;;;;;;;;;;5029219;28;20037;-69
2023/01/21 12:04:20;;;;;;;21.90;10.93;;;;;;;;;;5029913;28;20510;-68
2023/01/21 12:07:06;;;;;;;19.52;10.98;;;;;;;;;;5031743;28;20041;-75
2023/01/21 12:10:07;;;;;;;22.13;11.75;;;;;;;;;;5034995;28;20021;-74
2023/01/21 12:13:05;;;;;;;18.23;9.73;;;;;;;;;;5028543;28;20406;-75
2023/01/21 12:16:09;;;;;;;26.05;11.68;;;;;;;;;;5020380;28;20033;-75
2023/01/21 12:19:04;;;;;;;23.58;11.52;;;;;;;;;;5031760;28;20053;-74
2023/01/21 12:22:10;;;;;;;23.40;11.20;;;;;;;;;;5028390;28;20044;-68
2023/01/21 12:24:55;;;;;;;19.88;11.27;;;;;;;;;;5029496;28;20103;-76
2023/01/21 12:27:46;;;;;;;20.23;11.90;;;;;;;;;;5022400;28;20181;-79
2023/01/21 12:30:35;;;;;;;21.60;12.38;;;;;;;;;;5024964;28;20432;-78
2023/01/21 12:33:35;;;;;;;22.40;12.02;;;;;;;;;;5026921;28;20040;-78
2023/01/21 12:36:25;;;;;;;24.13;12.75;;;;;;;;;;5028713;28;20052;-78
2023/01/21 12:39:20;;;;;;;22.92;12.77;;;;;;;;;;5017054;28;20043;-78
2023/01/21 12:42:11;;;;;;;24.02;12.90;;;;;;;;;;5035826;28;20578;-71
2023/01/21 12:44:59;;;;;;;21.70;11.32;;;;;;;;;;5025566;28;20043;-72
2023/01/21 12:47:47;;;;;;;22.42;10.98;;;;;;;;;;5029449;28;20140;-72
2023/01/21 12:50:35;;;;;;;23.02;13.18;;;;;;;;;;5029184;28;20029;-72
2023/01/21 12:53:35;;;;;;;22.17;11.65;;;;;;;;;;5027758;28;20045;-70
2023/01/21 12:56:20;;;;;;;19.42;10.60;;;;;;;;;;5027207;28;20025;-69
2023/01/21 12:59:11;;;;;;;23.17;11.32;;;;;;;;;;5021371;28;20065;-72
2023/01/21 13:02:19;;;;;;;21.33;11.82;;;;;;;;;;5040380;28;20041;-75
2023/01/21 13:05:27;;;;;;;26.63;12.88;;;;;;;;;;5027084;28;20392;-74
2023/01/21 13:08:26;;;;;;;22.55;11.88;;;;;;;;;;5026386;28;20037;-76
2023/01/21 13:11:24;;;;;;;24.52;12.60;;;;;;;;;;5033481;28;20061;-74
2023/01/21 13:14:36;;;;;;;21.83;11.10;;;;;;;;;;5056960;28;20033;-76
2023/01/21 13:17:25;;;;;;;28.00;13.25;;;;;;;;;;5011036;28;20376;-74
2023/01/21 13:20:18;;;;;;;21.67;11.52;;;;;;;;;;5030041;28;20091;-73
2023/01/21 13:23:06;;;;;;;20.45;11.20;;;;;;;;;;5027436;28;20041;-72
2023/01/21 13:25:56;;;;;;;23.08;12.07;;;;;;;;;;5028314;28;20038;-72
2023/01/21 13:28:47;;;;;;;24.15;11.50;;;;;;;;;;5012013;28;20048;-76
2023/01/21 13:31:39;;;;;;;21.65;11.80;;;;;;;;;;5038384;28;20064;-74
2023/01/21 13:34:29;;;;;;;23.17;10.80;;;;;;;;;;5028325;28;20934;-73
2023/01/21 13:37:19;;;;;;;18.27;10.38;;;;;;;;;;5012802;28;20498;-74
2023/01/21 13:40:23;;;;;;;23.42;11.45;;;;;;;;;;5021302;28;20041;-74
2023/01/21 13:43:26;;;;;;;20.42;11.45;;;;;;;;;;5026901;28;20041;-72
2023/01/21 13:46:17;;;;;;;22.55;12.30;;;;;;;;;;5033269;28;20045;-72
2023/01/21 13:49:35;;;;;;;21.88;11.07;;;;;;;;;;5028217;28;20037;-75
2023/01/21 13:52:31;;;;;;;23.60;11.85;;;;;;;;;;5028571;28;20060;-78
2023/01/21 13:55:32;;;;;;;20.13;10.40;;;;;;;;;;5013053;28;20026;-68
2023/01/21 13:58:37;;;;;;;23.63;10.98;;;;;;;;;;5025689;28;20152;-70
2023/01/21 14:01:22;;;;;;;21.58;11.02;;;;;;;;;;5022542;28;20515;-70
2023/01/21 14:04:28;;;;;;;17.50;10.48;;;;;;;;;;5038402;28;20083;-69
2023/01/21 14:07:18;;;;;;;17.45;9.57;;;;;;;;;;5019439;28;20033;-70
2023/01/21 14:10:17;;;;;;;20.23;11.88;;;;;;;;;;5027850;28;20255;-71
2023/01/21 14:13:02;;;;;;;19.40;10.33;;;;;;;;;;5025351;28;20056;-73
2023/01/21 14:15:55;;;;;;;22.13;11.02;;;;;;;;;;5020319;28;20292;-76
2023/01/21 14:18:40;;;;;;;20.52;11.57;;;;;;;;;;5031500;28;20431;-76
2023/01/21 14:21:32;;;;;;;21.67;10.98;;;;;;;;;;5027229;28;20476;-75
2023/01/21 14:24:24;;;;;;;18.70;10.40;;;;;;;;;;5027464;28;20034;-73
2023/01/21 14:27:09;;;;;;;22.20;11.95;;;;;;;;;;5026768;28;20029;-74
2023/01/21 14:29:57;;;;;;;21.60;11.32;;;;;;;;;;5026499;28;20112;-69
2023/01/21 14:32:46;;;;;;;19.90;10.88;;;;;;;;;;5017418;28;20048;-74
2023/01/21 14:35:50;;;;;;;19.88;10.88;;;;;;;;;;5015193;28;20444;-75
2023/01/21 14:38:54;;;;;;;21.10;10.93;;;;;;;;;;5026256;28;20866;-74
2023/01/21 14:41:52;;;;;;;19.77;11.10;;;;;;;;;;5039629;28;20048;-74
2023/01/21 14:44:38;;;;;;;18.42;10.63;;;;;;;;;;5026087;28;20095;-74
2023/01/21 14:47:23;;;;;;;18.90;10.02;;;;;;;;;;5027525;28;20107;-69
2023/01/21 14:50:08;;;;;;;23.20;11.35;;;;;;;;;;5022120;28;20281;-69
2023/01/21 14:52:54;;;;;;;26.13;10.85;;;;;;;;;;5035534;28;20033;-77
2023/01/21 14:55:39;;;;;;;20.05;10.63;;;;;;;;;;5021076;28;20029;-69
2023/01/21 14:58:26;;;;;;;18.58;10.52;;;;;;;;;;5020099;28;20464;-64
2023/01/21 15:01:26;;;;;;;21.33;12.20;;;;;;;;;;5025868;28;20456;-63
2023/01/21 15:04:25;;;;;;;19.70;10.90;;;;;;;;;;5023120;28;20044;-63
2023/01/21 15:07:16;;;;;;;21.73;10.33;;;;;;;;;;5036657;28;20033;-68
2023/01/21 15:10:07;;;;;;;19.15;10.55;;;;;;;;;;5023209;28;20040;-67
2023/01/21 15:12:54;;;;;;;22.88;12.18;;;;;;;;;;5029055;28;20021;-71
2023/01/21 15:15:59;;;;;;;20.90;10.48;;;;;;;;;;5024762;28;20025;-69
2023/01/21 15:19:04;;;;;;;23.90;10.57;;;;;;;;;;5024354;28;20083;-69
2023/01/21 15:21:58;;;;;;;23.35;11.32;;;;;;;;;;5031343;28;20206;-69
2023/01/21 15:25:00;;;;;;;19.58;10.52;;;;;;;;;;5022857;28;20021;-69
2023/01/21 15:28:04;;;;;;;17.73;9.73;;;;;;;;;;5033124;28;20048;-74
2023/01/21 15:30:56;;;;;;;19.02;10.65;;;;;;;;;;5007034;28;20063;-76
2023/01/21 15:33:46;;;;;;;16.80;10.15;;;;;;;;;;5015994;28;20041;-76
2023/01/21 15:36:34;;;;;;;18.67;9.07;;;;;;;;;;5015251;28;20033;-75
2023/01/21 15:39:27;;;;;;;20.15;9.68;;;;;;;;;;5024617;28;20034;-77
2023/01/21 15:42:18;;;;;;;19.33;9.05;;;;;;;;;;5034862;28;20395;-78
2023/01/21 15:45:22;;;;;;;18.73;9.98;;;;;;;;;;5024910;28;20025;-80
2023/01/21 15:48:14;;;;;;;16.85;9.63;;;;;;;;;;5027735;28;20033;-71
2023/01/21 15:51:22;;;;;;;16.88;8.60;;;;;;;;;;5019775;28;20104;-72
2023/01/21 15:54:20;;;;;;;17.42;9.43;;;;;;;;;;5030303;28;20034;-70
2023/01/21 15:57:15;;;;;;;16.55;9.65;;;;;;;;;;5029205;28;20024;-70
2023/01/21 16:00:03;;;;;;;20.42;8.80;;;;;;;;;;5025628;28;20045;-70
2023/01/21 16:03:10;;;;;;;16.58;9.40;;;;;;;;;;5033989;28;20049;-70
2023/01/21 16:06:01;;;;;;;16.98;8.13;;;;;;;;;;5022010;28;20025;-78
2023/01/21 16:09:06;;;;;;;17.27;8.52;;;;;;;;;;5023221;28;20021;-76
2023/01/21 16:11:52;;;;;;;16.90;8.88;;;;;;;;;;5021088;28;20068;-79
2023/01/21 16:14:43;;;;;;;14.93;8.77;;;;;;;;;;5032945;28;20036;-76
2023/01/21 16:17:55;;;;;;;18.15;8.98;;;;;;;;;;5017411;28;20029;-82
2023/01/21 16:20:43;;;;;;;15.07;8.52;;;;;;;;;;5010716;28;20513;-73
2023/01/21 16:23:34;;;;;;;16.67;8.77;;;;;;;;;;5024454;28;20120;-77
2023/01/21 16:26:26;;;;;;;18.58;9.02;;;;;;;;;;5024137;28;20052;-78
2023/01/21 16:29:12;;;;;;;16.20;8.30;;;;;;;;;;5023385;28;20136;-76
2023/01/21 16:32:00;;;;;;;17.45;8.43;;;;;;;;;;5026415;28;20115;-77
2023/01/21 16:34:46;;;;;;;14.38;8.57;;;;;;;;;;5023278;28;20586;-80